Time;durP1;ratioP1;P1;durP2;ratioP2;P2;SDS_P1;SDS_P2;PMS_P1;PMS_P2;Temp;Humidity;BMP_temperature;BMP_pressure;BME280_temperature;BME280_humidity;BME280_pressure;Samples;Min_cycle;Max_cycle;Signal;HPM_P1;HPM_P2
2021/11/01 00:01:05;;;;;;;9.67;6.50;;;;;;;0.18;79.01;95744.98;1774582;81;21051;-69
2021/11/01 00:03:32;;;;;;;11.73;7.40;;;;;;;0.17;79.63;95745.81;1765501;80;21051;-69
2021/11/01 00:05:59;;;;;;;11.23;7.40;;;;;;;0.18;79.22;95747.58;1775757;81;21085;-70
2021/11/01 00:08:26;;;;;;;15.83;7.50;;;;;;;0.23;79.23;95745.09;1771389;81;21002;-70
2021/11/01 00:10:53;;;;;;;10.90;6.93;;;;;;;0.33;79.02;95739.28;1774957;81;21047;-69
2021/11/01 00:13:20;;;;;;;13.37;6.70;;;;;;;0.39;79.01;95744.59;1779308;81;21042;-69
2021/11/01 00:15:47;;;;;;;10.37;6.17;;;;;;;0.29;78.81;95728.78;1775613;80;21532;-69
2021/11/01 00:18:13;;;;;;;10.87;7.40;;;;;;;0.11;78.85;95734.00;1779028;81;20983;-68
2021/11/01 00:20:40;;;;;;;11.13;6.87;;;;;;;0.08;79.92;95732.64;1767023;80;21064;-67
2021/11/01 00:23:07;;;;;;;10.23;6.97;;;;;;;0.07;79.44;95733.89;1767856;80;21011;-67
2021/11/01 00:25:33;;;;;;;11.80;7.57;;;;;;;0.06;79.88;95724.36;1773841;80;21059;-67
2021/11/01 00:28:01;;;;;;;11.90;7.73;;;;;;;0.04;79.67;95728.63;1773146;80;21108;-68
2021/11/01 00:30:28;;;;;;;12.33;7.43;;;;;;;0.02;79.62;95721.23;1777403;81;21003;-67
2021/11/01 00:32:55;;;;;;;16.67;8.50;;;;;;;0.14;79.79;95715.03;1766602;80;21061;-68
2021/11/01 00:35:21;;;;;;;14.53;8.23;;;;;;;0.18;79.45;95719.04;1771771;80;21035;-68
2021/11/01 00:37:48;;;;;;;11.50;6.43;;;;;;;0.20;79.61;95712.56;1767915;80;20997;-69
2021/11/01 00:40:15;;;;;;;12.10;6.97;;;;;;;0.28;79.38;95715.34;1773112;80;21011;-68
2021/11/01 00:42:41;;;;;;;9.80;6.47;;;;;;;0.24;79.32;95707.91;1767695;80;21013;-68
2021/11/01 00:45:09;;;;;;;11.33;7.33;;;;;;;0.05;79.75;95707.92;1767545;80;20986;-68
2021/11/01 00:47:36;;;;;;;10.87;7.00;;;;;;;-0.08;79.61;95706.73;1767821;80;21077;-68
2021/11/01 00:50:04;;;;;;;11.23;6.57;;;;;;;-0.11;79.84;95712.28;1764822;80;21001;-68
2021/11/01 00:52:32;;;;;;;11.30;7.40;;;;;;;-0.13;79.82;95709.63;1771609;81;21052;-68
2021/11/01 00:55:02;;;;;;;11.87;7.20;;;;;;;-0.18;80.05;95715.55;1770218;80;21035;-68
2021/11/01 00:57:29;;;;;;;11.57;7.43;;;;;;;-0.14;80.28;95705.30;1775418;81;21074;-68
2021/11/01 00:59:59;;;;;;;12.10;7.90;;;;;;;-0.09;79.99;95706.28;1773961;81;21011;-68
2021/11/01 01:02:29;;;;;;;10.03;6.63;;;;;;;-0.11;80.06;95700.61;1773224;80;21078;-68
2021/11/01 01:04:56;;;;;;;12.80;6.93;;;;;;;-0.06;80.81;95701.59;1772282;80;21018;-68
2021/11/01 01:07:22;;;;;;;11.33;6.70;;;;;;;-0.17;79.42;95697.45;1773156;80;21551;-67
2021/11/01 01:09:50;;;;;;;8.77;6.27;;;;;;;-0.21;79.85;95696.91;1776387;81;21007;-68
2021/11/01 01:12:17;;;;;;;10.60;6.23;;;;;;;-0.21;79.68;95696.91;1768894;80;21029;-68
2021/11/01 01:14:50;;;;;;;13.27;7.17;;;;;;;-0.32;80.45;95696.66;1766762;80;21022;-68
2021/11/01 01:17:13;;;;;;;10.57;6.40;;;;;;;-0.30;80.38;95691.52;1765038;80;21007;-68
2021/11/01 01:19:52;;;;;;;8.87;5.13;;;;;;;-0.23;80.11;95689.11;1768588;80;21037;-68
2021/11/01 01:22:21;;;;;;;9.23;6.00;;;;;;;-0.21;80.21;95689.13;1772421;80;21357;-68
2021/11/01 01:24:42;;;;;;;9.83;5.87;;;;;;;-0.26;80.15;95684.25;1762478;80;21041;-68
2021/11/01 01:27:09;;;;;;;11.23;5.97;;;;;;;-0.28;79.74;95687.22;1764280;80;21108;-66
2021/11/01 01:29:36;;;;;;;9.00;5.93;;;;;;;-0.36;79.58;95679.26;1775418;80;21075;-68
2021/11/01 01:32:05;;;;;;;12.13;6.50;;;;;;;-0.39;80.08;95684.80;1774387;80;21809;-68
2021/11/01 01:34:32;;;;;;;10.37;6.50;;;;;;;-0.42;79.96;95692.51;1771707;80;21515;-68
2021/11/01 01:36:59;;;;;;;11.00;6.67;;;;;;;-0.41;80.03;95680.86;1764469;80;21005;-68
2021/11/01 01:39:26;;;;;;;10.63;6.53;;;;;;;-0.36;80.93;95684.44;1772414;80;21068;-68
2021/11/01 01:41:52;;;;;;;12.77;6.73;;;;;;;-0.40;80.83;95680.05;1763906;80;21033;-67
2021/11/01 01:44:19;;;;;;;11.03;6.93;;;;;;;-0.34;81.14;95671.11;1775801;81;21078;-68
2021/11/01 01:46:46;;;;;;;11.63;6.70;;;;;;;-0.26;80.78;95674.75;1774912;81;21057;-68
2021/11/01 01:49:12;;;;;;;12.03;6.60;;;;;;;-0.17;81.26;95671.95;1770699;80;21013;-67
2021/11/01 01:51:39;;;;;;;11.10;6.30;;;;;;;-0.15;81.12;95668.94;1767863;80;21012;-68
2021/11/01 01:54:06;;;;;;;11.03;6.83;;;;;;;-0.18;80.66;95667.16;1768001;80;21642;-68
2021/11/01 01:56:33;;;;;;;13.33;7.63;;;;;;;-0.29;80.17;95675.11;1770204;80;21501;-68
2021/11/01 01:59:04;;;;;;;36.87;16.47;;;;;;;-0.39;79.47;95667.52;1771776;81;20986;-68
2021/11/01 02:01:34;;;;;;;46.60;19.33;;;;;;;-0.49;79.57;95661.23;1770791;80;21504;-69
2021/11/01 02:04:02;;;;;;;29.23;12.93;;;;;;;-0.57;79.53;95659.30;1772783;81;21011;-69
2021/11/01 02:06:39;;;;;;;9.17;5.87;;;;;;;-0.61;80.03;95657.45;1767801;81;21010;-68
2021/11/01 02:09:43;;;;;;;10.37;7.27;;;;;;;-0.51;80.25;95656.42;1763369;80;21013;-68
2021/11/01 02:12:13;;;;;;;;;;;;;;;-0.50;80.09;95656.03;1774356;80;21003;-68
2021/11/01 02:14:50;;;;;;;9.53;6.23;;;;;;;-0.55;80.43;95653.75;1768436;80;20127;-68
2021/11/01 02:17:21;;;;;;;15.97;9.07;;;;;;;-0.56;80.81;95659.32;1775806;80;22209;-68
2021/11/01 02:19:52;;;;;;;12.30;7.17;;;;;;;-0.57;80.95;95656.28;1771905;80;21014;-68
2021/11/01 02:22:36;;;;;;;10.97;6.67;;;;;;;-0.53;80.73;95650.35;1768287;80;21551;-68
2021/11/01 02:25:13;;;;;;;12.90;6.42;;;;;;;-0.58;81.21;95648.06;1727764;81;20999;-69
2021/11/01 02:27:43;;;;;;;10.97;5.90;;;;;;;-0.56;80.62;95643.77;1765261;80;21015;-68
2021/11/01 02:30:12;;;;;;;11.33;6.83;;;;;;;-0.53;80.40;95650.75;1770180;80;21124;-68
2021/11/01 02:32:43;;;;;;;14.37;8.77;;;;;;;-0.51;80.25;95652.96;1768178;80;20992;-68
2021/11/01 02:35:12;;;;;;;10.47;6.20;;;;;;;-0.59;79.90;95651.91;1769939;80;21148;-67
2021/11/01 02:37:41;;;;;;;13.20;6.10;;;;;;;-0.61;80.16;95647.09;1768386;80;21057;-68
2021/11/01 02:40:10;;;;;;;10.90;7.60;;;;;;;-0.52;80.61;95648.20;1777020;81;21046;-67
2021/11/01 02:42:38;;;;;;;13.33;7.90;;;;;;;-0.53;80.79;95645.17;1776309;81;21049;-67
2021/11/01 02:45:13;;;;;;;12.00;7.70;;;;;;;-0.59;81.04;95645.00;1766858;80;21031;-68
2021/11/01 02:47:40;;;;;;;15.03;8.23;;;;;;;-0.54;81.01;95646.41;1769421;80;21500;-68
2021/11/01 02:50:11;;;;;;;17.90;10.97;;;;;;;-0.52;80.77;95652.09;1769304;81;21090;-68
2021/11/01 02:52:38;;;;;;;16.63;10.43;;;;;;;-0.64;79.73;95646.59;1773307;81;21090;-68
2021/11/01 02:55:07;;;;;;;13.73;7.23;;;;;;;-0.63;79.92;95648.37;1773335;81;21500;-68
2021/11/01 02:57:34;;;;;;;10.70;6.67;;;;;;;-0.72;79.61;95641.65;1775881;81;21022;-68
2021/11/01 03:00:04;;;;;;;10.97;5.57;;;;;;;-0.75;80.11;95640.28;1772574;80;20983;-68
2021/11/01 03:02:31;;;;;;;10.10;6.17;;;;;;;-0.73;80.50;95638.58;1765215;80;21055;-68
2021/11/01 03:04:58;;;;;;;11.10;7.10;;;;;;;-0.79;80.80;95638.02;1770641;80;21064;-68
2021/11/01 03:07:25;;;;;;;21.77;10.67;;;;;;;-0.84;80.75;95642.20;1758200;79;21586;-69
2021/11/01 03:09:52;;;;;;;38.57;16.57;;;;;;;-0.94;80.19;95633.73;1768071;80;20983;-68
2021/11/01 03:12:24;;;;;;;12.67;6.90;;;;;;;-0.97;80.12;95641.01;1772222;80;21062;-68
2021/11/01 03:14:58;;;;;;;12.40;6.80;;;;;;;-0.87;80.62;95639.55;1769811;80;21134;-68
2021/11/01 03:17:27;;;;;;;10.27;6.00;;;;;;;-0.80;81.15;95638.00;1757072;80;21039;-68
2021/11/01 03:20:11;;;;;;;16.03;8.40;;;;;;;-0.81;81.23;95631.05;1769329;80;20987;-68
2021/11/01 03:22:43;;;;;;;26.37;12.07;;;;;;;-0.78;81.35;95637.59;1772393;81;21035;-68
2021/11/01 03:25:26;;;;;;;21.80;10.97;;;;;;;-0.82;80.51;95639.67;1769268;80;21025;-68
2021/11/01 03:27:57;;;;;;;12.77;6.73;;;;;;;-0.79;80.65;95639.73;1754040;81;21046;-68
2021/11/01 03:30:25;;;;;;;11.67;7.00;;;;;;;-0.69;80.78;95643.02;1771947;80;21002;-68
2021/11/01 03:32:52;;;;;;;11.47;6.70;;;;;;;-0.63;80.56;95637.10;1773013;81;21507;-68
2021/11/01 03:35:21;;;;;;;14.30;7.73;;;;;;;-0.62;79.91;95638.88;1769302;80;21120;-68
2021/11/01 03:37:51;;;;;;;16.83;9.70;;;;;;;-0.75;79.91;95631.22;1764425;80;21045;-68
2021/11/01 03:40:20;;;;;;;32.60;13.83;;;;;;;-0.87;80.45;95633.06;1772922;80;21126;-68
2021/11/01 03:42:53;;;;;;;40.97;19.33;;;;;;;-0.92;79.32;95633.36;1769251;80;21528;-68
2021/11/01 03:45:22;;;;;;;33.30;14.28;;;;;;;-1.05;78.93;95632.17;1779888;80;21477;-69
2021/11/01 03:47:51;;;;;;;10.40;6.40;;;;;;;-1.11;79.30;95633.28;1776482;81;21066;-68
2021/11/01 03:50:45;;;;;;;12.67;6.70;;;;;;;-1.06;79.70;95631.69;1777888;81;21134;-68
2021/11/01 03:52:50;;;;;;;14.17;7.10;;;;;;;-1.00;80.37;95631.00;1759426;80;21460;-68
2021/11/01 03:55:19;;;;;;;12.23;6.70;;;;;;;-1.08;80.70;95626.92;1764248;80;21021;-68
2021/11/01 03:57:47;;;;;;;21.67;10.73;;;;;;;-1.05;80.66;95622.23;1769446;80;21030;-68
2021/11/01 04:00:15;;;;;;;24.40;11.47;;;;;;;-1.06;81.34;95621.34;1774101;80;20974;-68
2021/11/01 04:02:47;;;;;;;16.90;7.93;;;;;;;-1.00;81.35;95618.05;1764239;80;20989;-67
2021/11/01 04:05:14;;;;;;;15.27;8.10;;;;;;;-1.04;80.75;95622.26;1770172;80;21095;-68
2021/11/01 04:07:40;;;;;;;11.23;6.63;;;;;;;-1.08;80.56;95619.15;1774410;81;21034;-68
2021/11/01 04:10:09;;;;;;;11.17;6.57;;;;;;;-1.12;80.84;95620.77;1771971;81;21006;-68
2021/11/01 04:12:37;;;;;;;10.20;6.67;;;;;;;-1.07;80.97;95614.84;1764588;80;21017;-68
2021/11/01 04:15:10;;;;;;;9.77;6.63;;;;;;;-1.01;81.52;95626.22;1772049;80;21042;-68
2021/11/01 04:17:43;;;;;;;19.30;8.27;;;;;;;-1.07;81.38;95617.43;1773817;80;21050;-68
2021/11/01 04:22:52;;;;;;;11.63;7.20;;;;;;;-1.13;81.08;95607.80;1764885;80;21009;-68
2021/11/01 04:25:18;;;;;;;10.10;6.43;;;;;;;-1.14;81.23;95610.77;1774943;80;21034;-68
2021/11/01 04:27:45;;;;;;;14.80;8.07;;;;;;;-1.05;81.60;95608.00;1772544;81;21003;-68
2021/11/01 04:30:14;;;;;;;14.13;6.83;;;;;;;-1.02;81.36;95606.77;1765474;80;21005;-68
2021/11/01 04:32:43;;;;;;;16.17;8.70;;;;;;;-0.97;81.39;95603.88;1768039;80;21468;-67
2021/11/01 04:35:27;;;;;;;17.17;9.30;;;;;;;-0.98;81.37;95606.03;1765905;80;21051;-67
2021/11/01 04:38:12;;;;;;;11.97;6.93;;;;;;;-1.03;79.96;95596.84;1776939;81;21041;-68
2021/11/01 04:40:48;;;;;;;11.77;6.70;;;;;;;-1.09;80.48;95597.95;1764922;80;21014;-68
2021/11/01 04:43:25;;;;;;;11.37;7.53;;;;;;;-1.01;80.84;95596.44;1770269;80;21069;-67
2021/11/01 04:53:52;;;;;;;19.13;8.97;;;;;;;-0.85;80.76;95590.38;1776010;80;21011;-68
2021/11/01 04:56:25;;;;;;;17.57;9.43;;;;;;;-0.86;80.64;95586.88;1774132;80;21042;-67
2021/11/01 04:58:55;;;;;;;15.10;8.80;;;;;;;-0.87;80.60;95588.61;1766574;80;21089;-67
2021/11/01 05:01:31;;;;;;;14.23;8.00;;;;;;;-0.92;80.06;95586.75;1772483;80;21051;-68
2021/11/01 05:03:55;;;;;;;13.60;7.50;;;;;;;-0.97;80.10;95587.92;1766737;80;21085;-67
2021/11/01 05:06:22;;;;;;;12.10;6.00;;;;;;;-1.04;80.34;95586.42;1764243;80;21010;-68
2021/11/01 05:08:57;;;;;;;10.97;6.47;;;;;;;-1.12;80.48;95585.81;1768097;80;21109;-68
2021/11/01 05:11:34;;;;;;;12.50;6.80;;;;;;;-1.17;80.27;95586.53;1767439;80;21031;-68
2021/11/01 05:13:58;;;;;;;9.60;5.63;;;;;;;-1.21;80.41;95585.98;1774406;80;21022;-67
2021/11/01 05:16:47;;;;;;;8.43;5.87;;;;;;;-1.24;80.24;95585.91;1776341;80;21038;-68
2021/11/01 05:19:17;;;;;;;8.40;5.77;;;;;;;-1.28;80.45;95583.67;1773324;80;21020;-68
2021/11/01 05:24:32;;;;;;;9.30;5.80;;;;;;;-1.22;80.72;95581.66;1764532;80;21519;-67
2021/11/01 05:27:44;;;;;;;10.70;5.97;;;;;;;-1.25;81.85;95583.74;1773901;81;21078;-67
2021/11/01 05:29:26;;;;;;;9.90;5.90;;;;;;;-1.24;81.63;95581.60;1756615;80;21006;-68
2021/11/01 05:32:01;;;;;;;12.70;6.90;;;;;;;-1.16;81.70;95584.00;1769116;80;21542;-68
2021/11/01 05:34:25;;;;;;;20.57;11.50;;;;;;;-1.04;81.83;95585.13;1769546;80;21030;-68
2021/11/01 05:36:51;;;;;;;28.17;13.53;;;;;;;-1.01;81.20;95587.37;1767211;80;21041;-68
2021/11/01 05:39:18;;;;;;;18.43;9.47;;;;;;;-1.00;80.71;95589.14;1769719;80;21010;-68
2021/11/01 05:41:45;;;;;;;12.50;8.10;;;;;;;-0.97;80.75;95587.05;1779675;80;21046;-68
2021/11/01 05:44:12;;;;;;;10.67;6.23;;;;;;;-0.88;80.80;95588.16;1775643;81;21113;-67
2021/11/01 05:46:44;;;;;;;9.40;6.13;;;;;;;-0.75;81.12;95585.88;1765579;80;21530;-67
2021/11/01 05:49:09;;;;;;;13.97;7.77;;;;;;;-0.64;81.05;95581.82;1767259;80;21023;-68
2021/11/01 05:51:36;;;;;;;20.20;9.93;;;;;;;-0.68;80.52;95583.47;1770084;80;20979;-68
2021/11/01 05:54:10;;;;;;;34.33;19.63;;;;;;;-0.81;79.78;95587.87;1772055;81;20984;-68
2021/11/01 05:59:20;;;;;;;43.83;21.00;;;;;;;-0.95;80.47;95582.36;1764065;80;21037;-68
2021/11/01 06:01:52;;;;;;;28.03;14.23;;;;;;;-0.87;80.74;95580.84;1769313;80;21113;-68
2021/11/01 06:09:06;;;;;;;18.97;11.43;;;;;;;-0.72;80.85;95580.34;1769669;80;21103;-66
2021/11/01 06:13:54;;;;;;;31.00;17.00;;;;;;;-0.58;81.43;95581.08;1767411;80;21157;-67
2021/11/01 06:16:22;;;;;;;30.43;17.80;;;;;;;-0.51;81.10;95581.69;1766956;80;21069;-67
2021/11/01 06:18:49;;;;;;;24.87;14.77;;;;;;;-0.42;81.22;95583.64;1769268;80;21173;-67
2021/11/01 06:21:18;;;;;;;24.27;14.73;;;;;;;-0.32;81.11;95579.98;1773170;81;21010;-67
2021/11/01 06:23:51;;;;;;;19.27;10.60;;;;;;;-0.31;81.19;95576.97;1767851;80;20989;-68
2021/11/01 06:26:18;;;;;;;12.50;7.87;;;;;;;-0.23;81.73;95575.41;1764555;80;21056;-67
2021/11/01 06:28:48;;;;;;;24.83;13.53;;;;;;;-0.14;81.65;95569.15;1768624;80;21033;-68
2021/11/01 06:31:20;;;;;;;13.13;7.20;;;;;;;-0.10;81.08;95575.27;1773687;80;21049;-68
2021/11/01 06:41:44;;;;;;;24.60;14.03;;;;;;;0.01;83.20;95568.61;1737870;80;21051;-68
2021/11/01 06:44:24;;;;;;;19.27;11.77;;;;;;;0.11;82.64;95567.95;1762776;80;21582;-68
2021/11/01 06:57:27;;;;;;;25.50;16.37;;;;;;;0.77;83.33;95547.61;1766311;80;21018;-68
2021/11/01 07:19:14;;;;;;;27.60;16.83;;;;;;;2.00;81.01;95534.83;1776610;80;21580;-69
2021/11/01 08:24:59;;;;;;;31.67;15.67;;;;;;;6.35;76.23;95455.83;1769660;80;21066;-66
2021/11/01 08:30:10;;;;;;;27.07;14.17;;;;;;;6.57;73.69;95451.37;1764785;80;21049;-66
2021/11/01 08:38:11;;;;;;;24.33;12.23;;;;;;;6.71;72.76;95446.48;1772516;80;21011;-67
2021/11/01 08:40:46;;;;;;;23.10;12.40;;;;;;;6.94;73.50;95444.15;1778581;80;20999;-67
2021/11/01 08:43:17;;;;;;;17.70;11.13;;;;;;;7.09;72.37;95442.72;1766339;80;21029;-67
2021/11/01 08:48:24;;;;;;;19.57;11.30;;;;;;;7.54;71.82;95427.47;1739139;80;21021;-67
2021/11/01 09:07:16;;;;;;;28.00;16.50;;;;;;;9.25;67.64;95413.48;1764019;80;21018;-67
2021/11/01 09:09:50;;;;;;;24.57;15.57;;;;;;;9.39;65.30;95404.89;1771438;81;21102;-66
2021/11/01 09:20:47;;;;;;;22.43;14.07;;;;;;;9.90;63.15;95406.19;1766135;80;21039;-67
2021/11/01 09:28:28;;;;;;;22.17;14.03;;;;;;;10.26;62.55;95399.77;1770793;80;20981;-65
2021/11/01 09:41:43;;;;;;;31.83;19.70;;;;;;;10.84;59.93;95381.84;1766645;80;21009;-67
2021/11/01 09:44:14;;;;;;;19.70;13.97;;;;;;;11.02;60.14;95367.33;1769714;80;21015;-67
2021/11/01 09:46:40;;;;;;;18.63;13.23;;;;;;;11.14;58.38;95375.42;1769339;80;21058;-67
2021/11/01 09:49:14;;;;;;;23.00;13.97;;;;;;;11.13;58.44;95369.70;1766860;80;21117;-68
2021/11/01 09:51:52;;;;;;;19.50;12.70;;;;;;;11.19;58.47;95373.08;1767987;80;21012;-66
2021/11/01 09:54:25;;;;;;;20.40;14.27;;;;;;;11.35;58.27;95374.02;1766022;80;21081;-67
2021/11/01 09:57:03;;;;;;;20.72;13.62;;;;;;;11.45;57.16;95368.91;1774415;80;21625;-66
2021/11/01 09:59:40;;;;;;;22.67;13.80;;;;;;;11.62;56.98;95364.52;1767435;80;21068;-67
2021/11/01 10:02:11;;;;;;;26.23;15.00;;;;;;;12.06;57.79;95358.50;1770477;80;21581;-66
2021/11/01 10:04:44;;;;;;;21.33;15.23;;;;;;;12.53;55.94;95358.44;1769853;81;21022;-67
2021/11/01 10:07:19;;;;;;;18.23;12.35;;;;;;;12.87;54.88;95348.59;1776329;81;21010;-67
2021/11/01 10:09:52;;;;;;;30.80;18.52;;;;;;;13.15;53.74;95344.16;1765793;80;21088;-67
2021/11/01 10:12:31;;;;;;;20.68;14.20;;;;;;;13.34;50.75;95343.58;1769589;80;21013;-68
2021/11/01 10:18:08;;;;;;;20.32;14.10;;;;;;;14.06;50.26;95337.07;1768157;80;21006;-67
2021/11/01 10:20:43;;;;;;;20.00;14.18;;;;;;;14.28;48.57;95333.17;1771604;80;21012;-67
2021/11/01 10:23:23;;;;;;;17.65;13.05;;;;;;;14.46;49.27;95327.64;1770576;80;21503;-67
2021/11/01 10:26:06;;;;;;;17.23;13.55;;;;;;;14.69;48.04;95319.70;1770278;80;21565;-67
2021/11/01 10:28:34;;;;;;;21.25;14.28;;;;;;;15.02;48.12;95319.30;1776909;80;21584;-67
2021/11/01 10:31:12;;;;;;;22.05;13.78;;;;;;;15.43;46.63;95310.54;1778661;81;21015;-67
2021/11/01 10:33:44;;;;;;;19.35;12.85;;;;;;;15.57;45.91;95310.80;1770688;80;20986;-67
2021/11/01 10:36:09;;;;;;;17.37;14.10;;;;;;;15.72;44.16;95314.19;1763912;80;21128;-66
2021/11/01 10:38:39;;;;;;;17.73;13.60;;;;;;;15.92;43.52;95309.30;1775958;80;21015;-66
2021/11/01 10:44:23;;;;;;;16.37;13.08;;;;;;;16.52;42.35;95298.61;1768167;80;21013;-67
2021/11/01 10:57:58;;;;;;;;;;;;;;;17.27;39.24;95288.37;1777048;81;21019;-67
2021/11/01 11:11:38;;;;;;;16.30;12.90;;;;;;;17.88;37.35;95269.73;1773166;80;21057;-67
2021/11/01 11:14:26;;;;;;;24.05;17.42;;;;;;;17.99;39.21;95269.16;1774435;80;21031;-67
2021/11/01 11:22:28;;;;;;;16.97;12.50;;;;;;;18.11;37.51;95267.65;1766869;80;21039;-67
2021/11/01 11:27:59;;;;;;;18.17;13.38;;;;;;;18.33;37.20;95266.03;1777697;81;21087;-66
2021/11/01 11:47:59;;;;;;;18.27;12.78;;;;;;;19.56;34.67;95252.41;1718451;82;21026;-67
2021/11/01 11:50:22;;;;;;;16.00;11.97;;;;;;;19.69;33.56;95248.08;1715159;82;21081;-67
2021/11/01 11:52:49;;;;;;;15.75;12.75;;;;;;;19.61;34.26;95249.84;1737517;81;21048;-67
2021/11/01 11:55:24;;;;;;;17.45;12.40;;;;;;;19.71;34.59;95243.98;1764195;80;21468;-67
2021/11/01 11:58:01;;;;;;;14.00;12.43;;;;;;;19.95;33.35;95235.78;1763283;79;21006;-67
2021/11/01 12:00:31;;;;;;;18.65;12.30;;;;;;;19.92;33.04;95234.63;1777922;81;21031;-68
2021/11/01 12:03:13;;;;;;;16.05;12.47;;;;;;;19.97;33.35;95232.53;1749316;81;21113;-68
2021/11/01 12:05:48;;;;;;;18.70;13.05;;;;;;;20.21;33.35;95235.53;1771342;80;21021;-68
2021/11/01 12:08:34;;;;;;;18.25;12.37;;;;;;;20.09;32.96;95226.42;1772296;80;21030;-66
2021/11/01 12:19:11;;;;;;;17.23;12.47;;;;;;;20.60;32.11;95217.05;1770346;80;21040;-67
2021/11/01 12:21:41;;;;;;;16.62;13.38;;;;;;;20.58;31.64;95218.97;1753008;80;21496;-67
2021/11/01 12:24:21;;;;;;;14.03;11.83;;;;;;;20.46;31.77;95216.09;1771262;80;21634;-67
2021/11/01 12:26:44;;;;;;;17.07;12.78;;;;;;;20.33;32.06;95221.82;1770719;80;20999;-66
2021/11/01 12:29:13;;;;;;;17.15;13.60;;;;;;;20.55;31.54;95221.84;1764258;80;21551;-67
2021/11/01 12:31:41;;;;;;;14.78;12.60;;;;;;;20.70;32.33;95215.02;1766063;80;21099;-67
2021/11/01 12:34:21;;;;;;;15.80;13.15;;;;;;;20.66;32.02;95218.88;1778509;81;21022;-67
2021/11/01 12:39:39;;;;;;;15.68;13.18;;;;;;;20.84;32.33;95218.16;1767417;80;21079;-67
2021/11/01 12:58:31;;;;;;;20.68;13.90;;;;;;;21.21;30.87;95195.59;1774011;80;21512;-66
2021/11/01 13:01:10;;;;;;;18.42;15.03;;;;;;;21.49;30.54;95187.91;1772334;81;21031;-67
2021/11/01 13:03:39;;;;;;;15.85;13.25;;;;;;;21.64;30.32;95186.00;1760861;80;21022;-68
2021/11/01 13:06:14;;;;;;;15.90;14.03;;;;;;;21.33;30.42;95190.75;1766551;80;21052;-66
2021/11/01 13:08:50;;;;;;;19.95;14.45;;;;;;;21.48;30.02;95180.83;1766560;80;21501;-66
2021/11/01 13:11:30;;;;;;;17.15;13.43;;;;;;;21.43;29.86;95180.28;1770920;80;21040;-67
2021/11/01 13:14:13;;;;;;;18.85;13.72;;;;;;;20.95;30.37;95178.08;1742237;81;21023;-68
2021/11/01 13:19:15;;;;;;;23.42;14.90;;;;;;;21.30;29.94;95169.98;1744740;80;21026;-67
2021/11/01 13:21:56;;;;;;;25.48;14.40;;;;;;;21.34;30.45;95164.77;1768341;80;21096;-68
2021/11/01 13:24:26;;;;;;;22.52;13.60;;;;;;;20.98;29.92;95164.94;1763770;80;21499;-68
2021/11/01 13:27:13;;;;;;;21.85;15.75;;;;;;;20.10;31.26;95166.53;1771006;81;20982;-68
2021/11/01 13:38:07;;;;;;;16.12;12.47;;;;;;;19.16;32.82;95178.05;1769001;80;21000;-67
2021/11/01 13:40:42;;;;;;;17.25;13.60;;;;;;;18.43;33.85;95171.56;1774998;81;21007;-66
2021/11/01 13:43:08;;;;;;;17.55;13.15;;;;;;;17.56;35.86;95171.31;1770612;80;21077;-67
2021/11/01 13:45:35;;;;;;;23.57;16.82;;;;;;;16.95;36.94;95175.82;1772140;80;21103;-67
2021/11/01 13:48:03;;;;;;;17.45;13.35;;;;;;;16.38;37.90;95180.78;1746404;81;21011;-67
2021/11/01 13:50:39;;;;;;;17.80;14.33;;;;;;;15.81;39.49;95178.57;1767837;80;20981;-68
2021/11/01 13:53:19;;;;;;;19.15;13.45;;;;;;;15.32;40.12;95180.27;1774249;80;21011;-67
2021/11/01 13:55:48;;;;;;;18.30;13.18;;;;;;;14.77;41.63;95176.45;1776830;80;21164;-68
2021/11/01 14:28:36;;;;;;;17.83;12.13;;;;;;;9.88;56.10;95186.62;1771313;80;21112;-67
2021/11/01 14:31:28;;;;;;;19.23;12.47;;;;;;;9.54;58.23;95183.37;1763033;80;21057;-67
2021/11/01 15:06:58;;;;;;;21.27;11.73;;;;;;;7.89;60.46;95164.02;1778030;80;21065;-67
2021/11/01 15:27:52;;;;;;;18.33;11.60;;;;;;;6.29;65.00;95168.52;1764162;80;21511;-67
2021/11/01 15:40:37;;;;;;;21.77;11.80;;;;;;;5.77;65.80;95175.44;1777221;81;21012;-66
2021/11/01 16:18:37;;;;;;;26.03;13.93;;;;;;;4.32;71.43;95177.33;1766337;80;21013;-67
2021/11/01 16:21:02;;;;;;;26.67;15.40;;;;;;;4.38;72.78;95186.02;1763670;80;21014;-67
2021/11/01 16:23:37;;;;;;;26.77;14.97;;;;;;;4.38;72.88;95177.75;1754689;80;20982;-67
2021/11/01 16:26:25;;;;;;;29.07;15.87;;;;;;;4.44;71.52;95180.81;1766303;80;21067;-67
2021/11/01 16:28:51;;;;;;;26.00;15.03;;;;;;;4.41;71.55;95182.99;1773917;80;21088;-68
2021/11/01 16:31:26;;;;;;;27.17;15.20;;;;;;;4.50;71.15;95179.48;1769058;81;21010;-67
2021/11/01 16:34:10;;;;;;;25.57;14.47;;;;;;;4.53;71.14;95177.72;1773870;80;21061;-67
2021/11/01 16:36:58;;;;;;;27.30;15.50;;;;;;;4.50;71.21;95180.78;1772313;80;21508;-67
2021/11/01 16:39:18;;;;;;;25.03;14.27;;;;;;;4.57;70.92;95186.88;1775850;80;21229;-68
2021/11/01 16:41:48;;;;;;;25.57;14.63;;;;;;;4.57;70.35;95190.80;1769274;80;21066;-68
2021/11/01 16:46:49;;;;;;;25.23;13.53;;;;;;;4.47;70.25;95191.25;1773248;81;21058;-68
2021/11/01 16:49:17;;;;;;;20.23;12.57;;;;;;;4.46;69.81;95197.33;1767362;79;21084;-68
2021/11/01 16:51:44;;;;;;;24.30;13.90;;;;;;;4.31;71.26;95189.97;1765357;80;21082;-67
2021/11/01 16:54:15;;;;;;;24.40;15.33;;;;;;;4.07;70.93;95196.50;1775522;81;21548;-68
2021/11/01 17:00:06;;;;;;;23.38;13.32;;;;;;;4.07;70.57;95201.27;1766288;80;21085;-67
2021/11/01 17:01:51;;;;;;;21.43;10.97;;;;;;;3.96;70.50;95203.47;1758087;81;21121;-67
2021/11/01 17:04:18;;;;;;;22.70;12.17;;;;;;;3.78;71.50;95196.47;1766223;80;21579;-66
2021/11/01 17:07:03;;;;;;;21.90;11.70;;;;;;;3.50;72.74;95194.25;1773780;80;21516;-67
2021/11/01 17:09:46;;;;;;;18.93;10.57;;;;;;;3.44;73.05;95195.11;1770975;80;21058;-67
2021/11/01 17:23:15;;;;;;;22.70;13.90;;;;;;;3.10;74.11;95195.43;1770108;80;21068;-67
2021/11/01 17:25:44;;;;;;;24.97;14.13;;;;;;;3.06;73.59;95189.78;1777189;80;21540;-68
2021/11/01 17:28:21;;;;;;;22.70;13.87;;;;;;;3.13;73.64;95194.16;1770656;81;21101;-68
2021/11/01 17:36:26;;;;;;;24.67;13.37;;;;;;;3.14;73.48;95194.15;1765737;80;21086;-68
2021/11/01 18:46:10;;;;;;;26.33;15.20;;;;;;;1.85;77.17;95187.31;1771843;80;21082;-68
2021/11/01 18:51:15;;;;;;;27.57;16.30;;;;;;;2.09;77.21;95180.12;1773665;80;21024;-69
2021/11/01 18:53:56;;;;;;;27.25;15.00;;;;;;;2.03;76.52;95178.78;1763401;80;21049;-68
2021/11/01 18:56:33;;;;;;;26.43;15.87;;;;;;;2.02;76.59;95175.31;1776403;81;21047;-69
2021/11/01 18:58:59;;;;;;;25.00;14.40;;;;;;;1.98;76.33;95180.05;1772898;80;21016;-69
2021/11/01 19:01:29;;;;;;;27.20;15.13;;;;;;;2.02;76.42;95178.36;1776373;80;21058;-69
2021/11/01 19:03:57;;;;;;;30.53;15.83;;;;;;;2.07;75.99;95185.77;1775560;81;21096;-69
2021/11/01 19:06:46;;;;;;;21.80;13.53;;;;;;;2.06;75.69;95185.30;1765155;80;21009;-69
2021/11/01 21:27:00;;;;;;;21.53;10.37;;;;;;;0.34;78.29;95097.41;1764035;80;21511;-69
2021/11/01 21:29:28;;;;;;;21.87;13.07;;;;;;;0.35;78.43;95104.36;1771310;80;21066;-69
2021/11/01 21:31:55;;;;;;;25.63;13.23;;;;;;;0.20;78.17;95095.05;1771874;80;21037;-69
2021/11/01 21:34:32;;;;;;;25.60;13.17;;;;;;;0.22;78.21;95089.46;1776855;79;21077;-70
2021/11/01 21:36:57;;;;;;;26.60;14.73;;;;;;;0.11;78.33;95092.36;1770069;80;21110;-69
2021/11/01 21:39:23;;;;;;;17.33;10.87;;;;;;;0.16;78.73;95095.45;1775467;81;21569;-70
2021/11/01 21:41:51;;;;;;;21.93;13.30;;;;;;;0.09;79.17;95097.94;1774559;81;21091;-69
2021/11/01 21:44:18;;;;;;;26.33;13.80;;;;;;;0.03;78.62;95089.66;1772463;80;21094;-69
2021/11/01 21:46:45;;;;;;;27.07;14.40;;;;;;;-0.04;78.81;95084.80;1768503;80;21150;-70
2021/11/01 21:49:12;;;;;;;24.20;14.40;;;;;;;0.02;78.96;95081.41;1741535;81;21595;-69
2021/11/01 21:51:41;;;;;;;26.83;15.33;;;;;;;0.09;78.93;95081.08;1772741;80;21015;-69
2021/11/01 21:54:25;;;;;;;21.97;13.50;;;;;;;0.18;78.87;95079.91;1764310;80;21077;-69
2021/11/01 21:56:50;;;;;;;28.07;14.27;;;;;;;0.18;78.62;95079.91;1764566;80;21025;-69
2021/11/01 21:59:25;;;;;;;24.97;14.00;;;;;;;0.19;78.67;95082.94;1768989;80;21145;-69
2021/11/01 22:18:12;;;;;;;22.93;12.33;;;;;;;0.24;78.53;95059.66;1637656;87;21072;-69
2021/11/01 22:20:40;;;;;;;25.53;13.57;;;;;;;0.04;78.10;95050.32;1689848;82;21098;-69
2021/11/01 22:23:19;;;;;;;25.27;12.57;;;;;;;-0.06;78.57;95059.27;1769802;80;21078;-69